Time;durP1;ratioP1;P1;durP2;ratioP2;P2;SDS_P1;SDS_P2;PMS_P1;PMS_P2;Temp;Humidity;BMP_temperature;BMP_pressure;BME280_temperature;BME280_humidity;BME280_pressure;Samples;Min_cycle;Max_cycle;Signal;HPM_P1;HPM_P2
2022/09/11 00:00:55;;;;;;;15.80;12.35;;;;;;;19.61;60.72;101590.94;5093385;28;20044;-69
2022/09/11 00:05:52;;;;;;;17.83;13.20;;;;;;;19.59;60.49;101598.38;5093342;28;20060;-69
2022/09/11 00:08:20;;;;;;;17.90;13.60;;;;;;;19.57;60.51;101602.28;5093398;28;20036;-69
2022/09/11 00:10:47;;;;;;;15.13;13.48;;;;;;;19.55;60.53;101607.88;5093335;28;20040;-69
2022/09/11 00:13:20;;;;;;;18.15;13.77;;;;;;;19.54;60.61;101608.88;5091926;28;20044;-69
2022/09/11 00:15:50;;;;;;;18.65;14.13;;;;;;;19.50;60.75;101603.84;5075330;28;20044;-69
2022/09/11 00:18:22;;;;;;;22.75;15.98;;;;;;;19.45;60.92;101603.44;5071437;28;20156;-69
2022/09/11 00:20:55;;;;;;;21.30;15.13;;;;;;;19.38;61.10;101611.34;5071841;28;20041;-69
2022/09/11 00:23:24;;;;;;;20.83;15.27;;;;;;;19.34;61.12;101613.50;5071534;28;20044;-69
2022/09/11 00:25:51;;;;;;;17.58;14.18;;;;;;;19.31;61.13;101605.59;5072520;28;20052;-69
2022/09/11 00:28:20;;;;;;;24.50;14.88;;;;;;;19.30;61.23;101606.59;5072712;28;20079;-69
2022/09/11 00:31:00;;;;;;;24.20;16.35;;;;;;;19.31;61.49;101610.19;5072748;28;20178;-69
2022/09/11 00:33:32;;;;;;;22.38;15.77;;;;;;;19.33;61.57;101608.19;5058787;28;20535;-70
2022/09/11 00:36:02;;;;;;;19.90;15.73;;;;;;;19.35;61.34;101603.47;5051604;28;20064;-68
2022/09/11 00:38:31;;;;;;;21.48;16.00;;;;;;;19.36;61.30;101608.75;5052828;28;20132;-70
2022/09/11 00:41:00;;;;;;;28.17;16.92;;;;;;;19.35;61.05;101617.94;5052813;28;20037;-69
2022/09/11 00:43:50;;;;;;;25.33;17.50;;;;;;;19.33;61.45;101617.22;5053191;28;20041;-69
2022/09/11 00:46:18;;;;;;;22.65;17.23;;;;;;;19.35;61.60;101617.06;5051456;28;20052;-69
2022/09/11 00:48:48;;;;;;;22.98;16.70;;;;;;;19.34;61.25;101615.34;5052926;28;20068;-69
2022/09/11 00:51:25;;;;;;;23.17;16.60;;;;;;;19.32;61.56;101620.06;5052712;28;20495;-68
2022/09/11 00:53:58;;;;;;;25.67;18.30;;;;;;;19.31;61.75;101615.63;5052937;28;20045;-69
2022/09/11 00:56:30;;;;;;;24.67;17.65;;;;;;;19.30;61.86;101613.91;5052998;28;20502;-68
2022/09/11 00:58:58;;;;;;;25.00;17.73;;;;;;;19.29;61.76;101612.19;5053122;28;20082;-69
2022/09/11 01:01:24;;;;;;;24.90;18.80;;;;;;;19.29;61.58;101612.19;5053132;28;20037;-69
2022/09/11 01:03:55;;;;;;;25.67;18.52;;;;;;;19.27;61.72;101606.88;5051474;28;20099;-69
2022/09/11 01:06:23;;;;;;;27.85;19.30;;;;;;;19.28;61.83;101602.28;5034066;28;20136;-69
2022/09/11 01:08:51;;;;;;;29.05;19.13;;;;;;;19.28;61.94;101615.91;5050564;28;20040;-69
2022/09/11 01:11:42;;;;;;;29.52;16.58;;;;;;;19.25;61.73;101610.75;5052100;28;20106;-69
2022/09/11 01:14:20;;;;;;;27.00;16.52;;;;;;;19.24;61.71;101618.06;5051937;28;20091;-70
2022/09/11 01:17:00;;;;;;;24.50;16.50;;;;;;;19.21;62.03;101626.53;5051799;28;20052;-69
2022/09/11 01:19:42;;;;;;;23.35;15.60;;;;;;;19.20;61.70;101619.38;5051993;28;20095;-69
2022/09/11 01:22:44;;;;;;;21.55;16.05;;;;;;;19.21;61.90;101621.09;5051383;28;20076;-69
2022/09/11 01:25:28;;;;;;;19.15;15.60;;;;;;;19.22;61.65;101621.94;5050205;28;20071;-69
2022/09/11 01:27:59;;;;;;;21.58;16.92;;;;;;;19.21;61.47;101622.97;5050263;28;20048;-70
2022/09/11 01:30:36;;;;;;;21.13;15.70;;;;;;;19.18;61.48;101626.81;5065159;28;20090;-70
2022/09/11 01:33:48;;;;;;;20.38;15.95;;;;;;;19.16;61.36;101625.25;5069949;28;20051;-70
2022/09/11 01:36:52;;;;;;;19.77;14.93;;;;;;;19.13;61.39;101628.28;5058005;28;20441;-70
2022/09/11 01:39:24;;;;;;;18.20;14.35;;;;;;;19.11;61.06;101614.81;5067684;28;20482;-69
2022/09/11 01:41:55;;;;;;;20.27;14.35;;;;;;;19.09;61.14;101633.16;5049931;28;20041;-69
2022/09/11 01:44:35;;;;;;;20.25;14.32;;;;;;;19.07;61.42;101629.72;5051196;28;20037;-69
2022/09/11 01:47:09;;;;;;;18.98;14.27;;;;;;;19.05;61.41;101638.03;5049957;28;20037;-69
2022/09/11 01:49:54;;;;;;;18.58;15.05;;;;;;;19.01;61.00;101638.47;5049714;28;20098;-69
2022/09/11 01:52:30;;;;;;;19.60;14.35;;;;;;;18.96;60.84;101644.34;5049821;28;20040;-69
2022/09/11 01:55:13;;;;;;;22.13;16.17;;;;;;;18.90;60.95;101638.59;5050099;28;20355;-69
2022/09/11 01:57:46;;;;;;;18.92;14.50;;;;;;;18.85;60.92;101640.91;5050147;28;20037;-69
2022/09/11 02:00:15;;;;;;;22.50;15.63;;;;;;;18.81;61.31;101644.91;5033749;28;20056;-70
2022/09/11 02:02:45;;;;;;;20.58;15.82;;;;;;;18.78;61.21;101645.19;5051532;28;20051;-69
2022/09/11 02:05:26;;;;;;;21.50;16.40;;;;;;;18.73;61.06;101653.78;5049862;28;20499;-68
2022/09/11 02:07:55;;;;;;;19.55;16.30;;;;;;;18.71;60.92;101645.78;5051103;28;20095;-68
2022/09/11 02:10:38;;;;;;;25.27;17.08;;;;;;;18.67;60.93;101647.06;5051211;28;20044;-68
2022/09/11 02:13:43;;;;;;;21.67;17.17;;;;;;;18.62;61.12;101659.38;5049600;28;20454;-68
2022/09/11 02:16:38;;;;;;;25.15;18.33;;;;;;;18.61;61.22;101660.34;5053959;28;20056;-68
2022/09/11 02:19:11;;;;;;;25.20;19.23;;;;;;;18.57;61.60;101661.59;5069697;28;20036;-68
2022/09/11 02:21:38;;;;;;;24.73;18.63;;;;;;;18.55;61.38;101655.44;5069692;28;20040;-69
2022/09/11 02:24:33;;;;;;;25.15;19.20;;;;;;;18.51;61.86;101654.84;5069774;28;20041;-68
2022/09/11 02:27:03;;;;;;;31.15;21.50;;;;;;;18.55;61.70;101647.25;5058429;28;20118;-69
2022/09/11 02:29:31;;;;;;;26.15;20.10;;;;;;;18.52;61.85;101655.72;5049616;28;20536;-68
2022/09/11 02:31:59;;;;;;;34.40;21.33;;;;;;;18.51;62.07;101660.28;5049692;28;20078;-68
2022/09/11 02:34:33;;;;;;;26.27;19.42;;;;;;;18.52;61.88;101655.72;5051088;28;20034;-69
2022/09/11 02:37:09;;;;;;;27.73;19.63;;;;;;;18.53;62.06;101663.72;5049885;28;20041;-69
2022/09/11 02:40:14;;;;;;;25.98;18.55;;;;;;;18.52;61.85;101656.56;5049679;28;20372;-68
2022/09/11 02:42:54;;;;;;;25.75;17.73;;;;;;;18.52;62.03;101659.28;5049437;28;20056;-68
2022/09/11 02:45:31;;;;;;;29.92;18.35;;;;;;;18.51;62.11;101652.13;5049618;28;20056;-69
2022/09/11 02:48:22;;;;;;;25.65;17.83;;;;;;;18.51;61.96;101653.97;5053255;28;20065;-68
2022/09/11 02:51:11;;;;;;;24.23;17.92;;;;;;;18.51;61.99;101660.28;5062439;28;20055;-68
2022/09/11 02:54:03;;;;;;;25.13;18.77;;;;;;;18.51;61.88;101663.00;5074584;28;20047;-68
2022/09/11 02:56:32;;;;;;;23.83;17.20;;;;;;;18.54;61.68;101664.59;5056621;28;20045;-69
2022/09/11 02:59:05;;;;;;;22.52;17.48;;;;;;;18.52;61.99;101672.03;5073327;28;20067;-68
2022/09/11 03:01:51;;;;;;;23.20;16.85;;;;;;;18.50;61.95;101668.59;5073152;28;20165;-68
2022/09/11 03:04:23;;;;;;;22.85;17.92;;;;;;;18.51;61.84;101675.75;5055220;28;20094;-68
2022/09/11 03:06:52;;;;;;;24.70;16.80;;;;;;;18.50;61.59;101676.75;5053352;28;20041;-68
2022/09/11 03:09:19;;;;;;;36.53;17.33;;;;;;;18.46;61.69;101678.88;5036943;28;20094;-68
2022/09/11 03:11:50;;;;;;;23.95;17.40;;;;;;;18.42;61.61;101677.44;5053079;28;20048;-68
2022/09/11 03:14:18;;;;;;;21.33;17.30;;;;;;;18.36;61.67;101678.00;5054722;28;20043;-68
2022/09/11 03:16:45;;;;;;;21.20;16.00;;;;;;;18.31;61.61;101672.97;5053080;28;20051;-68
2022/09/11 03:19:12;;;;;;;20.92;16.35;;;;;;;18.30;61.47;101676.69;5052963;28;20041;-69
2022/09/11 03:21:39;;;;;;;19.20;14.98;;;;;;;18.33;61.39;101675.56;5072790;28;20029;-68
2022/09/11 03:24:11;;;;;;;23.67;17.02;;;;;;;18.33;61.74;101681.88;5073173;28;20495;-68
2022/09/11 03:26:38;;;;;;;21.83;16.80;;;;;;;18.35;61.51;101679.00;5064611;28;20041;-68
2022/09/11 03:29:05;;;;;;;22.90;15.70;;;;;;;18.36;61.50;101686.16;5054321;28;20037;-68
2022/09/11 03:31:32;;;;;;;22.63;17.25;;;;;;;18.37;61.86;101683.31;5052755;28;20473;-67
2022/09/11 03:34:09;;;;;;;22.88;15.98;;;;;;;18.38;61.32;101678.72;5037417;28;20045;-68
2022/09/11 03:36:36;;;;;;;21.42;17.20;;;;;;;18.38;61.31;101671.44;5052963;28;20047;-68
2022/09/11 03:39:04;;;;;;;24.88;16.83;;;;;;;18.38;61.74;101679.59;5065044;28;20051;-68
2022/09/11 03:41:31;;;;;;;19.25;16.05;;;;;;;18.39;61.33;101677.72;5072712;28;20036;-69
2022/09/11 03:43:59;;;;;;;19.63;14.70;;;;;;;18.39;61.37;101680.44;5073272;28;20568;-68
2022/09/11 03:46:27;;;;;;;22.33;15.85;;;;;;;18.39;61.62;101684.03;5073117;28;20044;-68
2022/09/11 03:48:54;;;;;;;20.50;15.65;;;;;;;18.38;61.45;101682.31;5072445;28;20043;-68
2022/09/11 03:51:20;;;;;;;20.30;14.35;;;;;;;18.38;61.37;101678.72;5056592;28;20041;-69
2022/09/11 03:53:48;;;;;;;18.50;15.15;;;;;;;18.35;61.32;101688.03;5051878;28;20106;-69
2022/09/11 03:56:15;;;;;;;18.73;13.68;;;;;;;18.32;61.05;101692.88;5051733;28;20049;-68
2022/09/11 03:58:46;;;;;;;19.73;15.43;;;;;;;18.29;61.05;101691.31;5052292;28;20041;-68
2022/09/11 04:01:14;;;;;;;31.90;18.05;;;;;;;18.25;60.83;101695.28;5053165;28;20071;-68
2022/09/11 04:03:46;;;;;;;104.10;21.10;;;;;;;18.21;61.28;101695.72;5071305;28;20410;-68
2022/09/11 04:06:25;;;;;;;109.35;19.00;;;;;;;18.14;61.26;101694.53;5072083;28;20057;-68
2022/09/11 04:08:53;;;;;;;21.73;16.48;;;;;;;18.03;61.00;101695.50;5071815;28;20037;-68
2022/09/11 04:11:21;;;;;;;28.05;17.60;;;;;;;17.95;61.24;101692.59;5071629;28;20051;-69
2022/09/11 04:13:53;;;;;;;18.75;15.27;;;;;;;17.91;61.72;101700.16;5069336;28;20047;-69
2022/09/11 04:16:23;;;;;;;17.43;14.90;;;;;;;17.92;61.60;101712.75;5051781;28;20568;-68
2022/09/11 04:18:53;;;;;;;16.02;13.40;;;;;;;17.95;61.65;101709.78;5051704;28;20396;-69
2022/09/11 04:21:20;;;;;;;26.95;13.60;;;;;;;17.97;61.87;101705.06;5051260;28;20098;-69
2022/09/11 04:23:59;;;;;;;31.65;14.35;;;;;;;17.95;61.55;101707.06;5051818;28;20045;-69
2022/09/11 04:26:30;;;;;;;63.88;16.95;;;;;;;17.91;61.71;101715.59;5051062;28;20053;-70
2022/09/11 04:29:04;;;;;;;24.13;14.60;;;;;;;17.84;61.58;101709.84;5051459;28;20045;-69
2022/09/11 04:31:33;;;;;;;43.83;15.45;;;;;;;17.80;61.30;101708.38;5051069;28;20041;-69
2022/09/11 04:34:00;;;;;;;22.58;14.35;;;;;;;17.72;61.55;101710.91;5052744;28;20036;-69
2022/09/11 04:36:30;;;;;;;19.48;15.02;;;;;;;17.70;61.81;101707.47;5051291;28;20041;-69
2022/09/11 04:38:58;;;;;;;26.25;15.77;;;;;;;17.72;61.84;101705.47;5052552;28;20049;-69
2022/09/11 04:41:27;;;;;;;19.08;15.68;;;;;;;17.74;61.71;101700.75;5051137;28;20048;-69
2022/09/11 04:44:21;;;;;;;19.05;15.27;;;;;;;17.77;61.97;101708.63;5051183;28;20044;-69
2022/09/11 04:46:47;;;;;;;18.27;13.85;;;;;;;17.83;62.02;101705.38;5051323;28;20041;-69
2022/09/11 04:49:14;;;;;;;16.58;14.00;;;;;;;17.85;62.03;101710.72;5052293;28;20547;-68
2022/09/11 04:51:44;;;;;;;21.50;15.00;;;;;;;17.87;62.06;101708.72;5050667;28;20132;-69
2022/09/11 04:54:20;;;;;;;20.80;14.43;;;;;;;17.90;62.08;101713.88;5051231;28;20041;-68
2022/09/11 04:56:47;;;;;;;19.40;14.85;;;;;;;17.91;62.01;101702.03;5058662;28;20106;-68
2022/09/11 04:59:19;;;;;;;22.48;15.68;;;;;;;17.92;62.08;101704.59;5050975;28;20033;-68
2022/09/11 05:01:54;;;;;;;20.10;15.10;;;;;;;17.94;61.90;101704.47;5050388;28;20052;-68
2022/09/11 05:04:25;;;;;;;19.20;15.57;;;;;;;17.95;62.25;101706.19;5066581;28;20041;-68
2022/09/11 05:06:53;;;;;;;19.70;15.50;;;;;;;17.97;62.37;101705.06;5051838;28;20080;-68
2022/09/11 05:09:21;;;;;;;21.92;16.02;;;;;;;18.02;62.42;101712.81;5051862;28;20037;-68
2022/09/11 05:11:47;;;;;;;26.40;16.13;;;;;;;18.05;62.14;101709.81;5051699;28;20037;-68
2022/09/11 05:14:19;;;;;;;44.28;17.50;;;;;;;18.08;62.22;101707.69;5052591;28;20388;-68
2022/09/11 05:16:48;;;;;;;22.02;16.77;;;;;;;18.10;62.44;101715.69;5070560;28;20044;-69
2022/09/11 05:19:17;;;;;;;23.48;16.75;;;;;;;18.13;62.61;101720.88;5070399;28;20040;-69
2022/09/11 05:21:45;;;;;;;45.03;18.40;;;;;;;18.13;62.07;101726.31;5070254;28;20044;-69
2022/09/11 05:24:16;;;;;;;30.10;17.40;;;;;;;18.15;62.46;101723.44;5054951;28;20041;-69
2022/09/11 05:26:42;;;;;;;38.60;18.58;;;;;;;18.16;62.41;101731.47;5034004;28;20052;-69
2022/09/11 05:29:13;;;;;;;26.65;17.08;;;;;;;18.16;62.67;101727.88;5050560;28;20129;-68
2022/09/11 05:32:06;;;;;;;32.67;18.38;;;;;;;18.17;62.53;101732.31;5047878;28;20053;-69
2022/09/11 05:34:34;;;;;;;29.02;17.33;;;;;;;18.15;62.77;101735.19;5052096;28;20416;-69
2022/09/11 05:37:01;;;;;;;34.83;18.13;;;;;;;18.13;62.82;101750.78;5050248;28;20051;-68
2022/09/11 05:39:31;;;;;;;51.03;19.80;;;;;;;18.13;62.71;101747.19;5050503;28;20044;-69
2022/09/11 05:42:00;;;;;;;19.40;15.32;;;;;;;18.15;62.50;101751.50;5050850;28;20037;-68
2022/09/11 05:44:35;;;;;;;20.55;17.08;;;;;;;18.17;62.66;101754.06;5050504;28;20406;-69
2022/09/11 05:47:03;;;;;;;28.27;15.98;;;;;;;18.17;62.55;101754.94;5050605;28;20053;-68
2022/09/11 05:49:30;;;;;;;30.30;17.77;;;;;;;18.15;62.98;101756.94;5050610;28;20037;-69
2022/09/11 05:51:58;;;;;;;56.47;19.88;;;;;;;18.12;62.89;101768.06;5050076;28;20041;-69
2022/09/11 05:54:29;;;;;;;31.77;18.27;;;;;;;18.10;63.05;101770.94;5053691;28;20041;-68
2022/09/11 05:56:58;;;;;;;21.55;17.50;;;;;;;18.13;63.22;101777.94;5050762;28;20428;-69
2022/09/11 05:59:26;;;;;;;23.50;17.20;;;;;;;18.17;62.88;101773.09;5050381;28;20561;-69
2022/09/11 06:01:53;;;;;;;29.35;17.65;;;;;;;18.19;62.94;101776.56;5055638;28;20496;-68
2022/09/11 06:04:32;;;;;;;21.88;17.75;;;;;;;18.21;63.10;101778.13;5064391;28;20041;-69
2022/09/11 06:06:59;;;;;;;28.45;18.60;;;;;;;18.23;62.88;101784.31;5064956;28;20044;-68
2022/09/11 06:09:27;;;;;;;24.27;16.33;;;;;;;18.26;63.13;101796.75;5062062;28;20094;-69
2022/09/11 06:11:53;;;;;;;18.73;16.15;;;;;;;18.27;63.24;101793.91;5070270;28;20048;-69
2022/09/11 06:14:24;;;;;;;24.90;16.70;;;;;;;18.31;63.21;101797.22;5053395;28;20049;-69
2022/09/11 06:16:50;;;;;;;23.88;16.50;;;;;;;18.35;62.94;101802.25;5050571;28;20064;-68
2022/09/11 06:19:17;;;;;;;33.70;16.45;;;;;;;18.37;63.09;101804.81;5050496;28;20040;-67
2022/09/11 06:21:45;;;;;;;24.52;16.20;;;;;;;18.34;62.89;101805.09;5052042;28;20045;-68
2022/09/11 06:24:27;;;;;;;25.13;16.17;;;;;;;18.31;63.07;101817.13;5055647;28;20380;-68
2022/09/11 06:26:55;;;;;;;21.70;16.05;;;;;;;18.30;63.31;101809.94;5054911;28;20057;-68
2022/09/11 06:29:22;;;;;;;35.83;16.92;;;;;;;18.32;63.41;101813.41;5054598;28;20095;-68
2022/09/11 06:31:50;;;;;;;33.05;16.83;;;;;;;18.31;63.23;101811.66;5056044;28;20045;-67
2022/09/11 06:34:22;;;;;;;37.85;15.82;;;;;;;18.29;63.15;101812.81;5055254;28;20091;-67
2022/09/11 06:36:50;;;;;;;30.17;15.00;;;;;;;18.27;63.20;101814.81;5053372;28;20132;-67
2022/09/11 06:39:21;;;;;;;24.30;16.08;;;;;;;18.25;63.09;101814.94;5055325;28;20045;-67
2022/09/11 06:41:49;;;;;;;24.02;15.20;;;;;;;18.23;63.14;101811.50;5054352;28;20107;-68
2022/09/11 06:44:20;;;;;;;57.80;16.08;;;;;;;18.26;63.19;101813.06;5053654;28;20067;-67
2022/09/11 06:46:47;;;;;;;24.42;15.57;;;;;;;18.26;63.32;101818.50;5061658;28;20608;-68
2022/09/11 06:49:13;;;;;;;25.17;15.90;;;;;;;18.26;63.46;101819.38;5074970;28;20040;-67
2022/09/11 06:51:58;;;;;;;29.83;16.92;;;;;;;18.30;63.44;101823.56;5074358;28;20059;-68
2022/09/11 06:54:30;;;;;;;21.40;14.98;;;;;;;18.35;63.69;101824.00;5056724;28;20522;-67
2022/09/11 06:57:01;;;;;;;102.65;20.85;;;;;;;18.41;63.51;101833.47;5071187;28;20079;-68
2022/09/11 06:59:27;;;;;;;40.50;17.58;;;;;;;18.39;63.62;101830.91;5054461;28;20037;-67
2022/09/11 07:01:54;;;;;;;69.35;19.60;;;;;;;18.41;63.28;101833.47;5054216;28;20487;-67
2022/09/11 07:04:22;;;;;;;44.85;16.00;;;;;;;18.43;63.45;101831.47;5053115;28;20040;-68
2022/09/11 07:06:49;;;;;;;22.63;16.60;;;;;;;18.47;63.70;101824.78;5068470;28;20052;-68
2022/09/11 07:09:16;;;;;;;23.52;16.15;;;;;;;18.50;63.86;101826.34;5052984;28;20132;-67
2022/09/11 07:11:49;;;;;;;112.75;19.08;;;;;;;18.56;63.82;101825.81;5053243;28;20041;-68
2022/09/11 07:14:20;;;;;;;99.28;18.30;;;;;;;18.56;63.37;101826.66;5052755;28;20072;-68
2022/09/11 07:16:51;;;;;;;21.67;15.60;;;;;;;18.57;63.83;101825.69;5053118;28;20041;-68
2022/09/11 07:19:18;;;;;;;25.98;16.40;;;;;;;18.60;63.59;101820.00;5052899;28;20041;-68
2022/09/11 07:21:44;;;;;;;121.75;24.48;;;;;;;18.65;63.96;101819.63;5052246;28;20043;-68
2022/09/11 07:24:16;;;;;;;102.43;18.73;;;;;;;18.64;63.96;101823.34;5052593;28;20460;-68
2022/09/11 07:26:43;;;;;;;143.98;22.38;;;;;;;18.60;63.69;101825.44;5052116;28;20489;-67
2022/09/11 07:29:17;;;;;;;151.23;23.83;;;;;;;18.54;63.92;101827.81;5052508;28;20045;-67
2022/09/11 07:31:46;;;;;;;23.23;17.88;;;;;;;18.49;63.94;101833.66;5053505;28;20045;-67
2022/09/11 07:34:17;;;;;;;115.40;22.17;;;;;;;18.55;64.19;101832.25;5034687;28;20182;-67
2022/09/11 07:36:44;;;;;;;111.47;21.90;;;;;;;18.59;64.09;101828.28;5052672;28;20469;-67
2022/09/11 07:39:11;;;;;;;22.05;16.42;;;;;;;18.61;64.27;101829.00;5052135;28;20051;-67
2022/09/11 07:41:48;;;;;;;55.80;18.55;;;;;;;18.67;64.13;101825.78;5038347;28;20098;-67
2022/09/11 07:44:24;;;;;;;46.70;17.65;;;;;;;18.70;64.35;101828.22;5072572;28;20068;-68
2022/09/11 07:46:51;;;;;;;28.60;17.55;;;;;;;18.72;64.06;101837.09;5066825;28;20033;-67
2022/09/11 07:49:20;;;;;;;29.80;18.67;;;;;;;18.76;64.61;101833.13;5062899;28;20051;-67
2022/09/11 07:51:47;;;;;;;36.80;19.42;;;;;;;18.84;64.34;101837.88;5055646;28;20052;-67
2022/09/11 07:54:20;;;;;;;36.70;18.90;;;;;;;18.91;64.66;101847.19;5072526;28;20048;-67
2022/09/11 07:56:47;;;;;;;26.10;19.55;;;;;;;18.96;64.42;101848.50;5073070;28;20102;-68
2022/09/11 07:59:17;;;;;;;36.30;20.45;;;;;;;19.01;64.59;101858.97;5068849;28;20044;-68
2022/09/11 08:01:46;;;;;;;27.98;20.92;;;;;;;19.02;64.39;101856.13;5071821;28;20041;-69
2022/09/11 08:04:15;;;;;;;52.42;22.27;;;;;;;19.04;64.25;101851.38;5072382;28;20131;-68
2022/09/11 08:06:42;;;;;;;32.58;21.30;;;;;;;19.04;64.16;101853.25;5071739;28;20045;-70
2022/09/11 08:09:19;;;;;;;36.00;20.85;;;;;;;19.08;64.68;101856.56;5055637;28;20107;-69
2022/09/11 08:11:54;;;;;;;45.00;20.88;;;;;;;19.08;64.65;101860.13;5052107;28;20045;-69
2022/09/11 08:14:26;;;;;;;32.00;21.67;;;;;;;19.09;64.50;101861.00;5051925;28;20403;-69
2022/09/11 08:16:55;;;;;;;38.97;21.95;;;;;;;19.15;64.98;101863.16;5051882;28;20053;-70
2022/09/11 08:19:25;;;;;;;30.33;21.73;;;;;;;19.18;64.84;101865.59;5055807;28;20064;-67
2022/09/11 08:21:55;;;;;;;34.35;21.95;;;;;;;19.23;64.81;101869.63;5055531;28;20033;-67
2022/09/11 08:24:23;;;;;;;32.10;21.95;;;;;;;19.30;64.81;101875.38;5055360;28;20044;-68
2022/09/11 08:26:54;;;;;;;30.98;22.38;;;;;;;19.38;64.82;101878.28;5070104;28;20047;-68
2022/09/11 08:29:20;;;;;;;34.60;23.10;;;;;;;19.45;64.80;101879.44;5093307;28;20040;-68
2022/09/11 08:31:47;;;;;;;30.73;22.83;;;;;;;19.54;64.88;101873.19;5093277;28;20490;-68
2022/09/11 08:34:21;;;;;;;33.15;23.00;;;;;;;19.62;64.57;101873.31;5075221;28;20036;-68
2022/09/11 08:36:49;;;;;;;37.45;23.20;;;;;;;19.73;64.69;101875.03;5074204;28;20138;-68
2022/09/11 08:39:16;;;;;;;32.42;21.55;;;;;;;19.80;64.78;101886.22;5075211;28;20422;-68
2022/09/11 08:41:52;;;;;;;38.72;22.23;;;;;;;19.87;64.70;101879.19;5074954;28;20074;-68
2022/09/11 08:44:32;;;;;;;33.40;22.15;;;;;;;19.96;64.42;101881.91;5074418;28;20090;-68
2022/09/11 08:47:29;;;;;;;29.45;21.10;;;;;;;20.11;64.29;101881.50;5077922;28;20406;-68
2022/09/11 08:50:07;;;;;;;31.45;23.02;;;;;;;20.18;64.30;101878.03;5055171;28;20045;-68
2022/09/11 08:52:35;;;;;;;43.63;23.25;;;;;;;20.24;64.71;101888.38;5055167;28;20135;-67
2022/09/11 08:55:16;;;;;;;34.72;23.23;;;;;;;20.26;64.45;101891.81;5054843;28;20044;-68
2022/09/11 08:57:53;;;;;;;33.00;23.48;;;;;;;20.33;64.25;101883.91;5054584;28;20044;-68
2022/09/11 09:00:37;;;;;;;38.58;25.70;;;;;;;20.37;64.54;101888.06;5056745;28;20040;-68
2022/09/11 09:03:38;;;;;;;35.28;25.20;;;;;;;20.39;64.47;101885.19;5038627;28;20040;-68
2022/09/11 09:06:20;;;;;;;39.55;26.30;;;;;;;20.46;64.22;101894.53;5054791;28;20098;-70
2022/09/11 09:09:12;;;;;;;37.28;26.08;;;;;;;20.47;64.25;101896.25;5054916;28;20055;-68
2022/09/11 09:11:49;;;;;;;41.80;28.55;;;;;;;20.52;64.05;101902.13;5055539;28;20384;-68
2022/09/11 09:14:46;;;;;;;45.67;31.83;;;;;;;20.56;64.06;101898.09;5072356;28;20044;-68
2022/09/11 09:17:13;;;;;;;43.88;29.77;;;;;;;20.58;64.39;101896.94;5070849;28;20040;-68
2022/09/11 09:19:48;;;;;;;48.47;34.22;;;;;;;20.63;64.02;101899.22;5054538;28;20053;-68
2022/09/11 09:22:25;;;;;;;44.95;33.05;;;;;;;20.70;64.20;101900.34;5054673;28;20433;-68
2022/09/11 09:25:00;;;;;;;51.05;34.20;;;;;;;20.78;63.94;101897.72;5054843;28;20048;-68
2022/09/11 09:27:36;;;;;;;50.55;34.67;;;;;;;20.86;63.81;101906.06;5054445;28;20064;-68
2022/09/11 09:30:06;;;;;;;52.65;35.83;;;;;;;20.91;63.62;101902.88;5054632;28;20082;-67
2022/09/11 09:32:50;;;;;;;56.28;37.90;;;;;;;20.93;63.76;101901.72;5058669;28;20039;-67
2022/09/11 09:35:38;;;;;;;47.70;34.15;;;;;;;21.01;63.50;101900.94;5075699;28;20041;-68
2022/09/11 09:38:15;;;;;;;45.00;32.47;;;;;;;21.10;63.58;101901.91;5054416;28;20075;-68
2022/09/11 09:40:58;;;;;;;49.72;34.40;;;;;;;21.18;63.71;101904.75;5056975;28;20086;-67
2022/09/11 09:44:07;;;;;;;46.35;33.25;;;;;;;21.29;63.79;101910.03;5054260;28;20055;-68
2022/09/11 09:46:40;;;;;;;45.90;34.42;;;;;;;21.43;63.63;101905.91;5072414;28;20567;-67
2022/09/11 09:49:16;;;;;;;53.70;36.90;;;;;;;21.56;63.85;101909.16;5076642;28;20035;-68
2022/09/11 09:51:42;;;;;;;46.72;35.47;;;;;;;21.71;63.70;101910.34;5092791;28;20436;-67
2022/09/11 09:54:25;;;;;;;44.22;33.85;;;;;;;21.84;63.50;101909.94;5092128;28;20048;-67
2022/09/11 09:57:01;;;;;;;43.78;33.90;;;;;;;21.87;63.30;101912.38;5090130;28;20056;-67
2022/09/11 09:59:42;;;;;;;36.40;29.55;;;;;;;21.92;63.14;101910.03;5091081;28;20044;-67
2022/09/11 10:02:08;;;;;;;38.10;29.88;;;;;;;21.98;63.10;101906.66;5087647;28;20040;-67
2022/09/11 10:04:39;;;;;;;35.53;29.40;;;;;;;22.02;62.95;101902.59;5091199;28;20051;-67
2022/09/11 10:07:09;;;;;;;35.90;26.88;;;;;;;22.08;62.65;101910.19;5090711;28;20052;-67
2022/09/11 10:09:45;;;;;;;33.80;26.92;;;;;;;22.14;62.31;101909.56;5091325;28;20040;-67
2022/09/11 10:12:20;;;;;;;30.10;25.48;;;;;;;22.25;62.32;101904.84;5090696;28;20032;-67
2022/09/11 10:15:00;;;;;;;36.20;26.88;;;;;;;22.31;61.82;101904.25;5089505;28;20040;-67
2022/09/11 10:17:30;;;;;;;31.42;26.38;;;;;;;22.37;61.67;101906.34;5091041;28;20056;-67
2022/09/11 10:20:21;;;;;;;44.25;39.30;;;;;;;22.39;61.52;101907.03;5091201;28;20040;-67
2022/09/11 10:22:50;;;;;;;33.38;26.70;;;;;;;22.47;61.58;101913.44;5090822;28;20304;-67
2022/09/11 10:25:25;;;;;;;34.85;28.25;;;;;;;22.53;61.36;101911.94;5090775;28;20094;-67
2022/09/11 10:28:13;;;;;;;32.50;26.63;;;;;;;22.61;61.40;101922.06;5090781;28;20071;-67
2022/09/11 10:30:59;;;;;;;31.13;25.20;;;;;;;22.70;61.00;101924.69;5091018;28;20398;-67
2022/09/11 10:33:36;;;;;;;29.08;24.20;;;;;;;22.80;60.96;101919.13;5090755;28;20123;-67
2022/09/11 10:36:06;;;;;;;28.73;24.20;;;;;;;22.90;60.57;101927.25;5090940;28;20460;-67
2022/09/11 10:38:44;;;;;;;29.80;25.48;;;;;;;23.02;60.50;101917.72;5088983;28;20383;-68
2022/09/11 10:41:12;;;;;;;27.90;24.83;;;;;;;23.19;60.22;101916.78;5090850;28;20497;-68
2022/09/11 10:43:59;;;;;;;30.42;24.55;;;;;;;23.32;60.08;101911.69;5090791;28;20539;-67
2022/09/11 10:46:35;;;;;;;29.25;23.55;;;;;;;23.52;59.75;101912.25;5089357;28;20109;-67
2022/09/11 10:49:04;;;;;;;28.45;22.40;;;;;;;23.72;59.74;101908.22;5091076;28;20063;-67
2022/09/11 10:51:34;;;;;;;26.95;23.75;;;;;;;23.88;59.24;101903.81;5090823;28;20040;-67
2022/09/11 10:54:15;;;;;;;29.27;25.10;;;;;;;23.99;58.85;101906.22;5090952;28;20097;-68
2022/09/11 10:57:08;;;;;;;26.67;23.77;;;;;;;24.07;58.34;101901.59;5083892;28;20555;-67
2022/09/11 10:59:48;;;;;;;26.65;23.35;;;;;;;24.17;58.11;101906.91;5070582;28;20512;-67
2022/09/11 11:02:19;;;;;;;25.00;22.20;;;;;;;24.28;57.93;101903.84;5070720;28;20098;-67
2022/09/11 11:04:51;;;;;;;26.05;22.77;;;;;;;24.35;57.45;101904.00;5070652;28;20041;-67
2022/09/11 11:07:35;;;;;;;27.02;22.92;;;;;;;24.37;57.02;101908.28;5070986;28;20056;-66
2022/09/11 11:10:11;;;;;;;27.38;23.10;;;;;;;24.43;57.02;101912.22;5075613;28;20461;-67
2022/09/11 11:13:05;;;;;;;25.60;22.48;;;;;;;24.50;57.02;101909.63;5073756;28;20063;-67
2022/09/11 11:15:51;;;;;;;23.35;20.75;;;;;;;24.63;56.74;101908.09;5074321;28;20033;-67
2022/09/11 11:18:30;;;;;;;25.25;20.08;;;;;;;24.81;56.40;101909.75;5073966;28;20040;-68
2022/09/11 11:21:31;;;;;;;23.13;19.40;;;;;;;24.97;56.06;101909.72;5074399;28;20036;-67
2022/09/11 11:24:16;;;;;;;24.10;19.38;;;;;;;25.11;55.75;101910.88;5074103;28;20048;-68
2022/09/11 11:26:42;;;;;;;22.38;19.60;;;;;;;25.16;55.56;101909.31;5074418;28;20446;-67
2022/09/11 11:29:15;;;;;;;22.73;20.33;;;;;;;25.18;55.07;101917.38;5074066;28;20056;-67
2022/09/11 11:32:14;;;;;;;24.17;19.33;;;;;;;25.13;54.74;101914.31;5085770;28;20395;-67
2022/09/11 11:35:00;;;;;;;21.48;19.20;;;;;;;25.11;54.80;101917.25;5094315;28;20482;-67
2022/09/11 11:37:32;;;;;;;24.48;21.17;;;;;;;25.10;54.71;101914.66;5094022;28;20453;-68
2022/09/11 11:40:18;;;;;;;23.77;21.17;;;;;;;25.06;54.34;101905.94;5081275;28;20087;-68
2022/09/11 11:42:51;;;;;;;23.48;20.55;;;;;;;24.96;54.08;101903.34;5073819;28;20055;-68